sensor_id;sensor_type;location;lat;lon;timestamp;pressure;altitude;pressure_sealevel;temperature;humidity
20043;BME280;10182;52.896;6.496;2023-06-22T00:02:06;101914.59;;;17.65;100.00
20043;BME280;10182;52.896;6.496;2023-06-22T00:07:07;101919.16;;;17.63;100.00
20043;BME280;10182;52.896;6.496;2023-06-22T00:12:09;101910.09;;;17.65;100.00
20043;BME280;10182;52.896;6.496;2023-06-22T00:17:12;101905.34;;;17.54;100.00
20043;BME280;10182;52.896;6.496;2023-06-22T00:22:14;101912.16;;;17.44;100.00
20043;BME280;10182;52.896;6.496;2023-06-22T00:27:17;101912.09;;;17.46;100.00
20043;BME280;10182;52.896;6.496;2023-06-22T00:32:20;101919.63;;;17.39;100.00
20043;BME280;10182;52.896;6.496;2023-06-22T00:37:22;101922.53;;;17.34;100.00
20043;BME280;10182;52.896;6.496;2023-06-22T00:42:25;101922.03;;;17.28;100.00
20043;BME280;10182;52.896;6.496;2023-06-22T00:47:28;101928.88;;;17.17;100.00
20043;BME280;10182;52.896;6.496;2023-06-22T00:52:31;101916.78;;;17.10;100.00
20043;BME280;10182;52.896;6.496;2023-06-22T00:57:35;101913.69;;;16.84;100.00
20043;BME280;10182;52.896;6.496;2023-06-22T01:02:39;101911.63;;;16.56;100.00
20043;BME280;10182;52.896;6.496;2023-06-22T01:07:44;101909.88;;;16.39;100.00
20043;BME280;10182;52.896;6.496;2023-06-22T01:12:56;101920.16;;;16.29;100.00
20043;BME280;10182;52.896;6.496;2023-06-22T01:18:03;101902.19;;;16.15;100.00
20043;BME280;10182;52.896;6.496;2023-06-22T01:23:10;101905.41;;;16.22;100.00
20043;BME280;10182;52.896;6.496;2023-06-22T01:28:23;101883.72;;;16.11;100.00
20043;BME280;10182;52.896;6.496;2023-06-22T01:33:28;101884.81;;;15.89;100.00
20043;BME280;10182;52.896;6.496;2023-06-22T01:38:30;101886.84;;;15.84;100.00
20043;BME280;10182;52.896;6.496;2023-06-22T01:43:33;101891.75;;;15.74;100.00
20043;BME280;10182;52.896;6.496;2023-06-22T01:48:37;101902.44;;;15.74;100.00
20043;BME280;10182;52.896;6.496;2023-06-22T01:53:40;101880.91;;;15.77;100.00
20043;BME280;10182;52.896;6.496;2023-06-22T01:58:48;101886.09;;;15.63;100.00
20043;BME280;10182;52.896;6.496;2023-06-22T02:03:58;101887.03;;;15.62;100.00
20043;BME280;10182;52.896;6.496;2023-06-22T02:09:08;101884.75;;;15.54;100.00
20043;BME280;10182;52.896;6.496;2023-06-22T02:14:11;101897.72;;;15.62;100.00
20043;BME280;10182;52.896;6.496;2023-06-22T02:19:15;101899.94;;;15.71;100.00
20043;BME280;10182;52.896;6.496;2023-06-22T02:24:18;101895.63;;;15.68;100.00
20043;BME280;10182;52.896;6.496;2023-06-22T02:29:23;101892.13;;;15.49;100.00
20043;BME280;10182;52.896;6.496;2023-06-22T02:34:26;101889.53;;;15.47;100.00
20043;BME280;10182;52.896;6.496;2023-06-22T02:39:28;101900.00;;;15.52;100.00
20043;BME280;10182;52.896;6.496;2023-06-22T02:44:30;101902.16;;;15.44;100.00
20043;BME280;10182;52.896;6.496;2023-06-22T02:49:33;101896.25;;;15.37;100.00
20043;BME280;10182;52.896;6.496;2023-06-22T02:54:34;101877.44;;;15.21;100.00
20043;BME280;10182;52.896;6.496;2023-06-22T02:59:36;101880.00;;;15.05;100.00
20043;BME280;10182;52.896;6.496;2023-06-22T03:04:42;101879.56;;;14.95;100.00
20043;BME280;10182;52.896;6.496;2023-06-22T03:09:44;101885.28;;;14.87;100.00
20043;BME280;10182;52.896;6.496;2023-06-22T03:14:45;101900.03;;;15.14;100.00
20043;BME280;10182;52.896;6.496;2023-06-22T03:19:48;101896.00;;;15.24;100.00
20043;BME280;10182;52.896;6.496;2023-06-22T03:24:50;101890.22;;;15.14;100.00
20043;BME280;10182;52.896;6.496;2023-06-22T03:29:52;101883.22;;;15.12;100.00
20043;BME280;10182;52.896;6.496;2023-06-22T03:34:55;101883.69;;;15.02;100.00
20043;BME280;10182;52.896;6.496;2023-06-22T03:39:59;101880.63;;;14.91;100.00
20043;BME280;10182;52.896;6.496;2023-06-22T03:45:00;101891.53;;;15.05;100.00
20043;BME280;10182;52.896;6.496;2023-06-22T03:50:06;101890.28;;;15.13;100.00
20043;BME280;10182;52.896;6.496;2023-06-22T03:55:08;101884.03;;;15.14;100.00
20043;BME280;10182;52.896;6.496;2023-06-22T04:00:10;101890.03;;;15.19;100.00
20043;BME280;10182;52.896;6.496;2023-06-22T04:05:14;101884.09;;;15.12;100.00
20043;BME280;10182;52.896;6.496;2023-06-22T04:10:17;101887.78;;;15.10;100.00
20043;BME280;10182;52.896;6.496;2023-06-22T04:15:20;101887.47;;;15.16;100.00
20043;BME280;10182;52.896;6.496;2023-06-22T04:20:23;101891.94;;;15.34;100.00
20043;BME280;10182;52.896;6.496;2023-06-22T04:25:26;101882.41;;;15.48;100.00
20043;BME280;10182;52.896;6.496;2023-06-22T04:30:28;101888.47;;;15.69;100.00
20043;BME280;10182;52.896;6.496;2023-06-22T04:35:33;101891.00;;;15.89;100.00
20043;BME280;10182;52.896;6.496;2023-06-22T04:40:35;101900.13;;;16.03;100.00
20043;BME280;10182;52.896;6.496;2023-06-22T04:45:36;101902.44;;;16.11;100.00
20043;BME280;10182;52.896;6.496;2023-06-22T04:50:40;101889.81;;;16.30;100.00
20043;BME280;10182;52.896;6.496;2023-06-22T04:55:42;101888.53;;;16.37;100.00
20043;BME280;10182;52.896;6.496;2023-06-22T05:00:46;101883.25;;;16.53;100.00
20043;BME280;10182;52.896;6.496;2023-06-22T05:05:49;101885.03;;;16.70;100.00
20043;BME280;10182;52.896;6.496;2023-06-22T05:10:50;101875.91;;;16.90;100.00
20043;BME280;10182;52.896;6.496;2023-06-22T05:15:52;101876.63;;;17.10;100.00
20043;BME280;10182;52.896;6.496;2023-06-22T05:21:02;101871.34;;;17.24;100.00
20043;BME280;10182;52.896;6.496;2023-06-22T05:26:04;101868.22;;;17.48;100.00
20043;BME280;10182;52.896;6.496;2023-06-22T05:31:06;101865.06;;;17.56;100.00
20043;BME280;10182;52.896;6.496;2023-06-22T05:36:09;101865.28;;;17.67;100.00
20043;BME280;10182;52.896;6.496;2023-06-22T05:41:11;101874.47;;;17.63;100.00
20043;BME280;10182;52.896;6.496;2023-06-22T05:46:12;101877.75;;;17.68;100.00
20043;BME280;10182;52.896;6.496;2023-06-22T05:51:16;101867.94;;;17.83;100.00
20043;BME280;10182;52.896;6.496;2023-06-22T05:56:17;101865.91;;;18.03;100.00
20043;BME280;10182;52.896;6.496;2023-06-22T06:01:19;101860.56;;;18.17;100.00
20043;BME280;10182;52.896;6.496;2023-06-22T06:06:22;101850.34;;;18.24;100.00
20043;BME280;10182;52.896;6.496;2023-06-22T06:11:29;101863.84;;;18.37;100.00
20043;BME280;10182;52.896;6.496;2023-06-22T06:16:30;101853.69;;;18.42;100.00
20043;BME280;10182;52.896;6.496;2023-06-22T06:21:35;101863.16;;;18.48;100.00
20043;BME280;10182;52.896;6.496;2023-06-22T06:26:36;101856.94;;;18.76;100.00
20043;BME280;10182;52.896;6.496;2023-06-22T06:31:38;101857.50;;;18.96;100.00
20043;BME280;10182;52.896;6.496;2023-06-22T06:36:41;101861.97;;;19.09;100.00
20043;BME280;10182;52.896;6.496;2023-06-22T06:41:44;101854.44;;;19.29;100.00
20043;BME280;10182;52.896;6.496;2023-06-22T06:46:46;101849.16;;;19.55;100.00
20043;BME280;10182;52.896;6.496;2023-06-22T06:51:49;101855.38;;;19.55;100.00
20043;BME280;10182;52.896;6.496;2023-06-22T06:56:51;101862.28;;;19.59;100.00
20043;BME280;10182;52.896;6.496;2023-06-22T07:01:53;101850.28;;;19.78;100.00
20043;BME280;10182;52.896;6.496;2023-06-22T07:06:56;101844.84;;;19.92;100.00
20043;BME280;10182;52.896;6.496;2023-06-22T07:11:57;101838.50;;;20.06;100.00
20043;BME280;10182;52.896;6.496;2023-06-22T07:16:59;101837.75;;;20.17;100.00
20043;BME280;10182;52.896;6.496;2023-06-22T07:22:03;101834.31;;;20.28;100.00
20043;BME280;10182;52.896;6.496;2023-06-22T07:27:05;101822.44;;;20.43;100.00
20043;BME280;10182;52.896;6.496;2023-06-22T07:32:07;101825.44;;;20.65;100.00
20043;BME280;10182;52.896;6.496;2023-06-22T07:37:10;101811.53;;;20.84;100.00
20043;BME280;10182;52.896;6.496;2023-06-22T07:42:12;101815.78;;;21.23;100.00
20043;BME280;10182;52.896;6.496;2023-06-22T07:47:18;101812.13;;;21.24;100.00
20043;BME280;10182;52.896;6.496;2023-06-22T07:52:22;101805.59;;;21.51;100.00
20043;BME280;10182;52.896;6.496;2023-06-22T07:57:23;101786.06;;;21.60;100.00
20043;BME280;10182;52.896;6.496;2023-06-22T08:02:34;101796.41;;;21.78;100.00
20043;BME280;10182;52.896;6.496;2023-06-22T08:07:37;101792.00;;;21.88;100.00
20043;BME280;10182;52.896;6.496;2023-06-22T08:12:39;101793.47;;;21.92;100.00
20043;BME280;10182;52.896;6.496;2023-06-22T08:17:41;101780.47;;;21.97;100.00
20043;BME280;10182;52.896;6.496;2023-06-22T08:22:44;101774.50;;;22.51;100.00
20043;BME280;10182;52.896;6.496;2023-06-22T08:27:46;101778.06;;;22.51;100.00
20043;BME280;10182;52.896;6.496;2023-06-22T08:32:48;101782.66;;;22.83;100.00
20043;BME280;10182;52.896;6.496;2023-06-22T08:37:51;101779.00;;;22.84;100.00
20043;BME280;10182;52.896;6.496;2023-06-22T08:42:54;101764.47;;;22.85;100.00
20043;BME280;10182;52.896;6.496;2023-06-22T08:47:56;101763.03;;;22.81;100.00
20043;BME280;10182;52.896;6.496;2023-06-22T08:52:59;101759.81;;;22.87;100.00
20043;BME280;10182;52.896;6.496;2023-06-22T08:58:03;101757.28;;;23.07;100.00
20043;BME280;10182;52.896;6.496;2023-06-22T09:03:05;101750.31;;;23.37;100.00
20043;BME280;10182;52.896;6.496;2023-06-22T09:08:08;101753.47;;;23.42;100.00
20043;BME280;10182;52.896;6.496;2023-06-22T09:13:10;101746.50;;;23.39;100.00
20043;BME280;10182;52.896;6.496;2023-06-22T09:18:11;101741.75;;;23.53;100.00
20043;BME280;10182;52.896;6.496;2023-06-22T09:23:14;101726.38;;;23.53;100.00
20043;BME280;10182;52.896;6.496;2023-06-22T09:28:16;101718.81;;;23.78;100.00
20043;BME280;10182;52.896;6.496;2023-06-22T09:33:18;101725.53;;;24.05;100.00
20043;BME280;10182;52.896;6.496;2023-06-22T09:38:21;101716.13;;;23.99;100.00
20043;BME280;10182;52.896;6.496;2023-06-22T09:43:23;101719.03;;;24.17;100.00
20043;BME280;10182;52.896;6.496;2023-06-22T09:48:25;101707.31;;;24.07;100.00
20043;BME280;10182;52.896;6.496;2023-06-22T09:53:28;101702.13;;;24.35;100.00
20043;BME280;10182;52.896;6.496;2023-06-22T09:58:30;101712.09;;;24.44;100.00
20043;BME280;10182;52.896;6.496;2023-06-22T10:03:31;101708.41;;;24.45;100.00
20043;BME280;10182;52.896;6.496;2023-06-22T10:08:34;101698.69;;;24.32;100.00
20043;BME280;10182;52.896;6.496;2023-06-22T10:13:36;101707.00;;;24.60;100.00
20043;BME280;10182;52.896;6.496;2023-06-22T10:18:38;101705.94;;;24.92;100.00
20043;BME280;10182;52.896;6.496;2023-06-22T10:23:41;101695.09;;;24.92;100.00
20043;BME280;10182;52.896;6.496;2023-06-22T10:28:42;101696.19;;;25.19;100.00
20043;BME280;10182;52.896;6.496;2023-06-22T10:33:44;101696.19;;;25.48;100.00
20043;BME280;10182;52.896;6.496;2023-06-22T10:38:47;101686.03;;;25.60;100.00
20043;BME280;10182;52.896;6.496;2023-06-22T10:43:49;101674.34;;;25.50;100.00
20043;BME280;10182;52.896;6.496;2023-06-22T10:48:51;101673.34;;;25.31;100.00
20043;BME280;10182;52.896;6.496;2023-06-22T10:53:56;101662.09;;;25.46;100.00
20043;BME280;10182;52.896;6.496;2023-06-22T10:58:57;101669.78;;;25.31;100.00
20043;BME280;10182;52.896;6.496;2023-06-22T11:03:59;101676.09;;;25.22;100.00
20043;BME280;10182;52.896;6.496;2023-06-22T11:09:02;101673.25;;;25.04;100.00
20043;BME280;10182;52.896;6.496;2023-06-22T11:14:05;101669.13;;;24.99;100.00
20043;BME280;10182;52.896;6.496;2023-06-22T11:19:06;101670.84;;;24.71;100.00
20043;BME280;10182;52.896;6.496;2023-06-22T11:24:09;101668.84;;;24.83;100.00
20043;BME280;10182;52.896;6.496;2023-06-22T11:29:11;101670.88;;;24.81;100.00
20043;BME280;10182;52.896;6.496;2023-06-22T11:34:13;101680.97;;;24.89;100.00
20043;BME280;10182;52.896;6.496;2023-06-22T11:39:16;101672.13;;;24.67;100.00
20043;BME280;10182;52.896;6.496;2023-06-22T11:44:17;101669.56;;;24.75;100.00
20043;BME280;10182;52.896;6.496;2023-06-22T11:49:19;101669.00;;;24.72;100.00
20043;BME280;10182;52.896;6.496;2023-06-22T11:54:22;101666.59;;;24.88;100.00
20043;BME280;10182;52.896;6.496;2023-06-22T11:59:24;101651.03;;;25.10;100.00
20043;BME280;10182;52.896;6.496;2023-06-22T12:04:26;101639.16;;;25.21;100.00
20043;BME280;10182;52.896;6.496;2023-06-22T12:09:29;101642.44;;;25.14;100.00
20043;BME280;10182;52.896;6.496;2023-06-22T12:14:30;101631.16;;;25.19;100.00
20043;BME280;10182;52.896;6.496;2023-06-22T12:19:34;101615.00;;;25.27;100.00
20043;BME280;10182;52.896;6.496;2023-06-22T12:24:37;101617.03;;;25.25;100.00
20043;BME280;10182;52.896;6.496;2023-06-22T12:29:39;101607.91;;;25.26;100.00
20043;BME280;10182;52.896;6.496;2023-06-22T12:34:41;101602.38;;;25.08;100.00
20043;BME280;10182;52.896;6.496;2023-06-22T12:39:45;101598.78;;;25.17;100.00
20043;BME280;10182;52.896;6.496;2023-06-22T12:44:46;101597.97;;;25.07;100.00
20043;BME280;10182;52.896;6.496;2023-06-22T12:49:48;101588.22;;;25.14;100.00
20043;BME280;10182;52.896;6.496;2023-06-22T12:54:51;101579.16;;;25.06;100.00
20043;BME280;10182;52.896;6.496;2023-06-22T12:59:54;101581.97;;;25.04;100.00
20043;BME280;10182;52.896;6.496;2023-06-22T13:04:56;101583.75;;;24.86;100.00
20043;BME280;10182;52.896;6.496;2023-06-22T13:09:59;101583.31;;;24.80;100.00
20043;BME280;10182;52.896;6.496;2023-06-22T13:15:01;101582.06;;;24.65;100.00
20043;BME280;10182;52.896;6.496;2023-06-22T13:20:04;101587.75;;;24.72;100.00
20043;BME280;10182;52.896;6.496;2023-06-22T13:25:08;101591.31;;;24.62;100.00
20043;BME280;10182;52.896;6.496;2023-06-22T13:30:12;101579.59;;;24.52;100.00
20043;BME280;10182;52.896;6.496;2023-06-22T13:35:14;101573.34;;;24.52;100.00
20043;BME280;10182;52.896;6.496;2023-06-22T13:40:17;101564.78;;;24.46;100.00
20043;BME280;10182;52.896;6.496;2023-06-22T13:45:19;101568.47;;;24.26;100.00
20043;BME280;10182;52.896;6.496;2023-06-22T13:50:21;101572.47;;;24.12;100.00
20043;BME280;10182;52.896;6.496;2023-06-22T13:55:24;101557.66;;;24.06;100.00
20043;BME280;10182;52.896;6.496;2023-06-22T14:00:27;101555.34;;;24.02;100.00
20043;BME280;10182;52.896;6.496;2023-06-22T14:05:29;101552.47;;;23.93;100.00
20043;BME280;10182;52.896;6.496;2023-06-22T14:10:32;101547.16;;;23.82;100.00
20043;BME280;10182;52.896;6.496;2023-06-22T14:15:33;101538.75;;;23.75;100.00
20043;BME280;10182;52.896;6.496;2023-06-22T14:20:35;101536.88;;;23.66;100.00
20043;BME280;10182;52.896;6.496;2023-06-22T14:25:39;101533.59;;;23.53;100.00
20043;BME280;10182;52.896;6.496;2023-06-22T14:30:40;101528.78;;;23.25;100.00
20043;BME280;10182;52.896;6.496;2023-06-22T14:35:42;101517.81;;;23.17;100.00
20043;BME280;10182;52.896;6.496;2023-06-22T14:40:45;101522.31;;;22.86;100.00
20043;BME280;10182;52.896;6.496;2023-06-22T14:45:47;101521.56;;;22.84;100.00
20043;BME280;10182;52.896;6.496;2023-06-22T14:50:48;101521.81;;;22.59;100.00
20043;BME280;10182;52.896;6.496;2023-06-22T14:55:52;101511.38;;;22.45;100.00
20043;BME280;10182;52.896;6.496;2023-06-22T15:00:54;101507.25;;;22.29;100.00
20043;BME280;10182;52.896;6.496;2023-06-22T15:05:56;101495.56;;;22.08;100.00
20043;BME280;10182;52.896;6.496;2023-06-22T15:11:00;101496.97;;;21.91;100.00
20043;BME280;10182;52.896;6.496;2023-06-22T15:16:03;101481.75;;;21.57;100.00
20043;BME280;10182;52.896;6.496;2023-06-22T15:21:05;101492.13;;;21.51;100.00
20043;BME280;10182;52.896;6.496;2023-06-22T15:26:08;101488.47;;;21.29;100.00
20043;BME280;10182;52.896;6.496;2023-06-22T15:31:10;101492.66;;;21.22;100.00
20043;BME280;10182;52.896;6.496;2023-06-22T15:36:11;101487.28;;;21.10;100.00
20043;BME280;10182;52.896;6.496;2023-06-22T15:41:14;101473.06;;;21.08;100.00
20043;BME280;10182;52.896;6.496;2023-06-22T15:46:16;101465.09;;;20.84;100.00
20043;BME280;10182;52.896;6.496;2023-06-22T15:51:18;101457.25;;;20.70;100.00
20043;BME280;10182;52.896;6.496;2023-06-22T15:56:21;101445.44;;;20.48;100.00
20043;BME280;10182;52.896;6.496;2023-06-22T16:01:24;101433.53;;;20.28;100.00
20043;BME280;10182;52.896;6.496;2023-06-22T16:06:25;101441.84;;;20.25;100.00
20043;BME280;10182;52.896;6.496;2023-06-22T16:11:28;101435.72;;;20.23;100.00
20043;BME280;10182;52.896;6.496;2023-06-22T16:16:31;101435.78;;;19.99;100.00
20043;BME280;10182;52.896;6.496;2023-06-22T16:21:32;101428.38;;;19.89;100.00
20043;BME280;10182;52.896;6.496;2023-06-22T16:26:39;101431.81;;;19.91;100.00
20043;BME280;10182;52.896;6.496;2023-06-22T16:31:41;101451.75;;;19.89;100.00
20043;BME280;10182;52.896;6.496;2023-06-22T16:36:43;101440.75;;;19.79;100.00
20043;BME280;10182;52.896;6.496;2023-06-22T16:41:46;101447.94;;;19.67;100.00
20043;BME280;10182;52.896;6.496;2023-06-22T16:46:50;101436.25;;;19.55;100.00
20043;BME280;10182;52.896;6.496;2023-06-22T16:51:51;101449.78;;;19.54;100.00
20043;BME280;10182;52.896;6.496;2023-06-22T16:56:55;101435.03;;;19.35;100.00
20043;BME280;10182;52.896;6.496;2023-06-22T17:01:57;101440.81;;;19.42;100.00
20043;BME280;10182;52.896;6.496;2023-06-22T17:07:01;101435.28;;;19.19;100.00
20043;BME280;10182;52.896;6.496;2023-06-22T17:12:07;101419.97;;;19.08;100.00
20043;BME280;10182;52.896;6.496;2023-06-22T17:17:10;101423.94;;;19.03;100.00
20043;BME280;10182;52.896;6.496;2023-06-22T17:22:12;101433.63;;;18.92;100.00
20043;BME280;10182;52.896;6.496;2023-06-22T17:27:26;101437.66;;;18.85;100.00
20043;BME280;10182;52.896;6.496;2023-06-22T17:32:29;101449.59;;;18.81;100.00
20043;BME280;10182;52.896;6.496;2023-06-22T17:37:47;101443.69;;;18.76;100.00
20043;BME280;10182;52.896;6.496;2023-06-22T17:42:50;101454.41;;;18.76;100.00
20043;BME280;10182;52.896;6.496;2023-06-22T17:47:53;101456.03;;;18.78;100.00
20043;BME280;10182;52.896;6.496;2023-06-22T17:52:55;101470.84;;;18.84;100.00
20043;BME280;10182;52.896;6.496;2023-06-22T17:57:58;101489.28;;;18.76;100.00
20043;BME280;10182;52.896;6.496;2023-06-22T18:03:00;101492.94;;;18.75;100.00
20043;BME280;10182;52.896;6.496;2023-06-22T18:08:03;101501.31;;;18.70;100.00
20043;BME280;10182;52.896;6.496;2023-06-22T18:13:07;101515.38;;;18.74;100.00
20043;BME280;10182;52.896;6.496;2023-06-22T18:18:09;101521.16;;;18.68;100.00
20043;BME280;10182;52.896;6.496;2023-06-22T18:23:11;101524.81;;;18.54;100.00
20043;BME280;10182;52.896;6.496;2023-06-22T18:28:17;101525.81;;;18.38;100.00
20043;BME280;10182;52.896;6.496;2023-06-22T18:33:20;101513.06;;;18.29;100.00
20043;BME280;10182;52.896;6.496;2023-06-22T18:38:22;101513.78;;;18.18;100.00
20043;BME280;10182;52.896;6.496;2023-06-22T18:43:25;101492.25;;;18.05;100.00
20043;BME280;10182;52.896;6.496;2023-06-22T18:48:26;101494.97;;;17.91;100.00
20043;BME280;10182;52.896;6.496;2023-06-22T18:53:28;101485.31;;;17.88;100.00
20043;BME280;10182;52.896;6.496;2023-06-22T18:58:31;101486.38;;;17.86;100.00
20043;BME280;10182;52.896;6.496;2023-06-22T19:03:34;101472.41;;;17.81;100.00
20043;BME280;10182;52.896;6.496;2023-06-22T19:09:12;101474.84;;;17.71;100.00
20043;BME280;10182;52.896;6.496;2023-06-22T19:14:19;101474.25;;;17.80;100.00
20043;BME280;10182;52.896;6.496;2023-06-22T19:19:21;101467.72;;;17.84;100.00
20043;BME280;10182;52.896;6.496;2023-06-22T19:24:28;101483.69;;;17.86;100.00
20043;BME280;10182;52.896;6.496;2023-06-22T19:29:31;101482.56;;;17.75;100.00
20043;BME280;10182;52.896;6.496;2023-06-22T19:34:35;101481.38;;;17.67;100.00
20043;BME280;10182;52.896;6.496;2023-06-22T19:39:36;101480.25;;;17.56;100.00
20043;BME280;10182;52.896;6.496;2023-06-22T19:44:39;101494.41;;;17.58;100.00
20043;BME280;10182;52.896;6.496;2023-06-22T19:49:42;101493.53;;;17.58;100.00
20043;BME280;10182;52.896;6.496;2023-06-22T19:54:44;101521.38;;;17.55;100.00
20043;BME280;10182;52.896;6.496;2023-06-22T19:59:47;101529.41;;;17.55;100.00
20043;BME280;10182;52.896;6.496;2023-06-22T20:04:49;101532.84;;;17.57;100.00
20043;BME280;10182;52.896;6.496;2023-06-22T20:10:06;101527.84;;;17.66;100.00
20043;BME280;10182;52.896;6.496;2023-06-22T20:15:18;101532.94;;;17.70;100.00
20043;BME280;10182;52.896;6.496;2023-06-22T20:20:21;101528.53;;;17.69;100.00
20043;BME280;10182;52.896;6.496;2023-06-22T20:25:24;101536.34;;;17.72;100.00
20043;BME280;10182;52.896;6.496;2023-06-22T20:30:27;101537.13;;;17.74;100.00
20043;BME280;10182;52.896;6.496;2023-06-22T20:35:29;101530.91;;;17.74;100.00
20043;BME280;10182;52.896;6.496;2023-06-22T20:40:31;101537.72;;;17.65;100.00
20043;BME280;10182;52.896;6.496;2023-06-22T20:45:34;101537.56;;;17.54;100.00
20043;BME280;10182;52.896;6.496;2023-06-22T20:50:36;101535.47;;;17.45;100.00
20043;BME280;10182;52.896;6.496;2023-06-22T20:55:38;101534.03;;;17.39;100.00
20043;BME280;10182;52.896;6.496;2023-06-22T21:00:41;101536.22;;;17.32;100.00
20043;BME280;10182;52.896;6.496;2023-06-22T21:05:43;101536.91;;;17.21;100.00
20043;BME280;10182;52.896;6.496;2023-06-22T21:10:46;101535.16;;;17.20;100.00
20043;BME280;10182;52.896;6.496;2023-06-22T21:15:49;101541.66;;;17.16;100.00
20043;BME280;10182;52.896;6.496;2023-06-22T21:20:51;101535.94;;;17.08;100.00
20043;BME280;10182;52.896;6.496;2023-06-22T21:25:53;101550.66;;;17.01;100.00
20043;BME280;10182;52.896;6.496;2023-06-22T21:30:56;101555.06;;;17.02;100.00
20043;BME280;10182;52.896;6.496;2023-06-22T21:35:57;101564.97;;;17.00;100.00
20043;BME280;10182;52.896;6.496;2023-06-22T21:40:59;101568.69;;;16.97;100.00
20043;BME280;10182;52.896;6.496;2023-06-22T21:46:02;101577.00;;;16.92;100.00
20043;BME280;10182;52.896;6.496;2023-06-22T21:51:04;101574.00;;;16.83;100.00
20043;BME280;10182;52.896;6.496;2023-06-22T21:56:05;101583.66;;;16.85;100.00
20043;BME280;10182;52.896;6.496;2023-06-22T22:01:09;101584.00;;;16.79;100.00
20043;BME280;10182;52.896;6.496;2023-06-22T22:06:10;101588.56;;;16.77;100.00
20043;BME280;10182;52.896;6.496;2023-06-22T22:11:12;101602.63;;;16.66;100.00
20043;BME280;10182;52.896;6.496;2023-06-22T22:16:15;101600.97;;;16.64;100.00
20043;BME280;10182;52.896;6.496;2023-06-22T22:21:17;101609.75;;;16.66;100.00
20043;BME280;10182;52.896;6.496;2023-06-22T22:26:18;101609.75;;;16.66;100.00
20043;BME280;10182;52.896;6.496;2023-06-22T22:31:21;101608.22;;;16.62;100.00
20043;BME280;10182;52.896;6.496;2023-06-22T22:36:23;101613.38;;;16.65;100.00
20043;BME280;10182;52.896;6.496;2023-06-22T22:41:25;101610.22;;;16.58;100.00
20043;BME280;10182;52.896;6.496;2023-06-22T22:46:28;101610.28;;;16.56;100.00
20043;BME280;10182;52.896;6.496;2023-06-22T22:51:30;101620.56;;;16.48;100.00
20043;BME280;10182;52.896;6.496;2023-06-22T22:56:31;101637.50;;;16.49;100.00
20043;BME280;10182;52.896;6.496;2023-06-22T23:01:34;101641.81;;;16.51;100.00
20043;BME280;10182;52.896;6.496;2023-06-22T23:06:36;101650.41;;;16.56;100.00
20043;BME280;10182;52.896;6.496;2023-06-22T23:11:38;101653.34;;;16.52;100.00
20043;BME280;10182;52.896;6.496;2023-06-22T23:16:41;101657.16;;;16.48;100.00
20043;BME280;10182;52.896;6.496;2023-06-22T23:21:43;101650.25;;;16.44;100.00
20043;BME280;10182;52.896;6.496;2023-06-22T23:26:45;101652.00;;;16.45;100.00
20043;BME280;10182;52.896;6.496;2023-06-22T23:31:49;101662.59;;;16.46;100.00
20043;BME280;10182;52.896;6.496;2023-06-22T23:36:50;101657.84;;;16.51;100.00
20043;BME280;10182;52.896;6.496;2023-06-22T23:41:52;101662.16;;;16.54;100.00
20043;BME280;10182;52.896;6.496;2023-06-22T23:46:55;101667.00;;;16.47;100.00
20043;BME280;10182;52.896;6.496;2023-06-22T23:51:58;101678.56;;;16.48;100.00
20043;BME280;10182;52.896;6.496;2023-06-22T23:56:59;101674.22;;;16.45;100.00
